sensor_id;sensor_type;location;lat;lon;timestamp;temperature;humidity
78315;SHT31;68596;52.080;4.662;2023-07-09T00:42:21;26.47;62.89
78315;SHT31;68596;52.080;4.662;2023-07-09T00:45:26;26.45;62.44
78315;SHT31;68596;52.080;4.662;2023-07-09T00:48:16;26.48;62.65
78315;SHT31;68596;52.080;4.662;2023-07-09T00:51:01;26.47;62.40
78315;SHT31;68596;52.080;4.662;2023-07-09T00:53:47;26.44;62.71
78315;SHT31;68596;52.080;4.662;2023-07-09T00:56:38;26.42;62.75
78315;SHT31;68596;52.080;4.662;2023-07-09T00:59:28;26.40;62.60
78315;SHT31;68596;52.080;4.662;2023-07-09T01:02:16;26.38;63.08
78315;SHT31;68596;52.080;4.662;2023-07-09T01:05:07;26.32;63.77
78315;SHT31;68596;52.080;4.662;2023-07-09T01:07:51;26.31;64.47
78315;SHT31;68596;52.080;4.662;2023-07-09T01:10:37;26.28;64.72
78315;SHT31;68596;52.080;4.662;2023-07-09T01:13:26;26.27;64.78
78315;SHT31;68596;52.080;4.662;2023-07-09T01:16:11;26.21;64.86
78315;SHT31;68596;52.080;4.662;2023-07-09T01:18:55;26.17;64.61
78315;SHT31;68596;52.080;4.662;2023-07-09T01:21:39;26.16;64.87
78315;SHT31;68596;52.080;4.662;2023-07-09T01:24:50;26.11;64.48
78315;SHT31;68596;52.080;4.662;2023-07-09T01:27:43;26.04;64.56
78315;SHT31;68596;52.080;4.662;2023-07-09T01:30:37;26.02;63.80
78315;SHT31;68596;52.080;4.662;2023-07-09T01:33:22;26.01;63.92
78315;SHT31;68596;52.080;4.662;2023-07-09T01:36:08;26.02;63.81
78315;SHT31;68596;52.080;4.662;2023-07-09T01:38:53;26.01;63.96
78315;SHT31;68596;52.080;4.662;2023-07-09T01:41:38;26.01;63.94
78315;SHT31;68596;52.080;4.662;2023-07-09T01:44:23;26.00;63.83
78315;SHT31;68596;52.080;4.662;2023-07-09T01:47:07;25.97;63.47
78315;SHT31;68596;52.080;4.662;2023-07-09T01:49:52;25.98;63.38
78315;SHT31;68596;52.080;4.662;2023-07-09T01:52:43;25.96;63.46
78315;SHT31;68596;52.080;4.662;2023-07-09T01:55:28;25.96;63.28
78315;SHT31;68596;52.080;4.662;2023-07-09T01:58:13;26.00;63.33
78315;SHT31;68596;52.080;4.662;2023-07-09T02:00:58;25.98;63.34
78315;SHT31;68596;52.080;4.662;2023-07-09T02:03:42;26.01;63.55
78315;SHT31;68596;52.080;4.662;2023-07-09T02:06:27;26.00;63.46
78315;SHT31;68596;52.080;4.662;2023-07-09T02:09:16;26.00;63.41
78315;SHT31;68596;52.080;4.662;2023-07-09T02:12:00;26.00;63.89
78315;SHT31;68596;52.080;4.662;2023-07-09T02:14:46;25.94;63.77
78315;SHT31;68596;52.080;4.662;2023-07-09T02:17:30;25.90;63.75
78315;SHT31;68596;52.080;4.662;2023-07-09T02:20:15;25.88;63.81
78315;SHT31;68596;52.080;4.662;2023-07-09T02:22:59;25.83;63.87
78315;SHT31;68596;52.080;4.662;2023-07-09T02:25:43;25.81;64.28
78315;SHT31;68596;52.080;4.662;2023-07-09T02:28:27;25.78;64.54
78315;SHT31;68596;52.080;4.662;2023-07-09T02:31:11;25.80;65.16
78315;SHT31;68596;52.080;4.662;2023-07-09T02:33:57;25.76;65.48
78315;SHT31;68596;52.080;4.662;2023-07-09T02:36:41;25.74;65.90
78315;SHT31;68596;52.080;4.662;2023-07-09T02:39:27;25.71;66.02
78315;SHT31;68596;52.080;4.662;2023-07-09T02:42:13;25.63;65.71
78315;SHT31;68596;52.080;4.662;2023-07-09T02:44:58;25.57;65.90
78315;SHT31;68596;52.080;4.662;2023-07-09T02:47:42;25.56;66.16
78315;SHT31;68596;52.080;4.662;2023-07-09T02:50:26;25.51;66.28
78315;SHT31;68596;52.080;4.662;2023-07-09T02:53:10;25.50;66.47
78315;SHT31;68596;52.080;4.662;2023-07-09T02:55:55;25.46;66.71
78315;SHT31;68596;52.080;4.662;2023-07-09T02:58:39;25.40;66.38
78315;SHT31;68596;52.080;4.662;2023-07-09T03:01:23;25.36;66.29
78315;SHT31;68596;52.080;4.662;2023-07-09T03:04:11;25.36;66.37
78315;SHT31;68596;52.080;4.662;2023-07-09T03:06:55;25.33;66.45
78315;SHT31;68596;52.080;4.662;2023-07-09T03:09:40;25.32;67.00
78315;SHT31;68596;52.080;4.662;2023-07-09T03:12:24;25.29;66.87
78315;SHT31;68596;52.080;4.662;2023-07-09T03:15:08;25.26;66.85
78315;SHT31;68596;52.080;4.662;2023-07-09T03:17:52;25.25;66.83
78315;SHT31;68596;52.080;4.662;2023-07-09T03:20:36;25.25;67.01
78315;SHT31;68596;52.080;4.662;2023-07-09T03:23:22;25.23;66.96
78315;SHT31;68596;52.080;4.662;2023-07-09T03:26:06;25.20;66.94
78315;SHT31;68596;52.080;4.662;2023-07-09T03:28:51;25.20;67.28
78315;SHT31;68596;52.080;4.662;2023-07-09T03:31:35;25.16;67.44
78315;SHT31;68596;52.080;4.662;2023-07-09T03:34:19;25.18;67.61
78315;SHT31;68596;52.080;4.662;2023-07-09T03:37:04;25.16;67.51
78315;SHT31;68596;52.080;4.662;2023-07-09T03:39:48;25.15;67.63
78315;SHT31;68596;52.080;4.662;2023-07-09T03:42:33;25.11;67.53
78315;SHT31;68596;52.080;4.662;2023-07-09T03:45:17;25.12;67.52
78315;SHT31;68596;52.080;4.662;2023-07-09T03:48:02;25.12;68.00
78315;SHT31;68596;52.080;4.662;2023-07-09T03:50:48;25.06;67.96
78315;SHT31;68596;52.080;4.662;2023-07-09T03:53:32;25.02;67.92
78315;SHT31;68596;52.080;4.662;2023-07-09T03:56:17;25.02;68.10
78315;SHT31;68596;52.080;4.662;2023-07-09T03:59:01;25.01;68.09
78315;SHT31;68596;52.080;4.662;2023-07-09T04:01:45;25.02;67.91
78315;SHT31;68596;52.080;4.662;2023-07-09T04:04:30;25.02;67.82
78315;SHT31;68596;52.080;4.662;2023-07-09T04:07:14;25.05;67.67
78315;SHT31;68596;52.080;4.662;2023-07-09T04:10:04;25.05;67.58
78315;SHT31;68596;52.080;4.662;2023-07-09T04:12:48;25.08;67.71
78315;SHT31;68596;52.080;4.662;2023-07-09T04:15:33;25.12;67.28
78315;SHT31;68596;52.080;4.662;2023-07-09T04:18:17;25.15;67.27
78315;SHT31;68596;52.080;4.662;2023-07-09T04:21:02;25.16;67.25
78315;SHT31;68596;52.080;4.662;2023-07-09T04:23:46;25.20;67.50
78315;SHT31;68596;52.080;4.662;2023-07-09T04:26:30;25.18;67.40
78315;SHT31;68596;52.080;4.662;2023-07-09T04:29:14;25.12;67.44
78315;SHT31;68596;52.080;4.662;2023-07-09T04:31:59;25.15;67.20
78315;SHT31;68596;52.080;4.662;2023-07-09T04:34:43;25.14;67.30
78315;SHT31;68596;52.080;4.662;2023-07-09T04:37:28;25.08;67.22
78315;SHT31;68596;52.080;4.662;2023-07-09T04:40:12;25.11;67.91
78315;SHT31;68596;52.080;4.662;2023-07-09T04:42:57;25.12;68.19
78315;SHT31;68596;52.080;4.662;2023-07-09T04:45:41;25.12;68.42
78315;SHT31;68596;52.080;4.662;2023-07-09T04:48:25;25.16;68.38
78315;SHT31;68596;52.080;4.662;2023-07-09T04:51:09;25.14;68.47
78315;SHT31;68596;52.080;4.662;2023-07-09T04:53:54;25.15;68.73
78315;SHT31;68596;52.080;4.662;2023-07-09T04:56:38;25.18;68.97
78315;SHT31;68596;52.080;4.662;2023-07-09T04:59:22;25.16;68.71
78315;SHT31;68596;52.080;4.662;2023-07-09T05:02:07;25.15;68.73
78315;SHT31;68596;52.080;4.662;2023-07-09T05:04:52;25.16;69.30
78315;SHT31;68596;52.080;4.662;2023-07-09T05:07:35;25.16;68.82
78315;SHT31;68596;52.080;4.662;2023-07-09T05:10:20;25.18;69.49
78315;SHT31;68596;52.080;4.662;2023-07-09T05:13:04;25.18;69.07
78315;SHT31;68596;52.080;4.662;2023-07-09T05:15:49;25.16;69.32
78315;SHT31;68596;52.080;4.662;2023-07-09T05:18:34;25.14;68.94
78315;SHT31;68596;52.080;4.662;2023-07-09T05:21:19;25.18;69.24
78315;SHT31;68596;52.080;4.662;2023-07-09T05:24:05;25.19;69.16
78315;SHT31;68596;52.080;4.662;2023-07-09T05:26:49;25.19;69.20
78315;SHT31;68596;52.080;4.662;2023-07-09T05:29:33;25.19;68.61
78315;SHT31;68596;52.080;4.662;2023-07-09T05:32:17;25.25;68.86
78315;SHT31;68596;52.080;4.662;2023-07-09T05:35:02;25.27;68.82
78315;SHT31;68596;52.080;4.662;2023-07-09T05:37:46;25.29;68.63
78315;SHT31;68596;52.080;4.662;2023-07-09T05:40:30;25.32;68.39
78315;SHT31;68596;52.080;4.662;2023-07-09T05:43:14;25.35;68.39
78315;SHT31;68596;52.080;4.662;2023-07-09T05:45:58;25.42;68.52
78315;SHT31;68596;52.080;4.662;2023-07-09T05:48:44;25.43;68.50
78315;SHT31;68596;52.080;4.662;2023-07-09T05:51:29;25.46;68.28
78315;SHT31;68596;52.080;4.662;2023-07-09T05:54:13;25.51;68.21
78315;SHT31;68596;52.080;4.662;2023-07-09T05:56:57;25.59;68.01
78315;SHT31;68596;52.080;4.662;2023-07-09T05:59:41;25.63;68.06
78315;SHT31;68596;52.080;4.662;2023-07-09T06:02:25;25.67;67.40
78315;SHT31;68596;52.080;4.662;2023-07-09T06:05:09;25.69;67.65
78315;SHT31;68596;52.080;4.662;2023-07-09T06:07:54;25.78;67.61
78315;SHT31;68596;52.080;4.662;2023-07-09T06:10:38;25.81;67.23
78315;SHT31;68596;52.080;4.662;2023-07-09T06:13:27;25.86;67.54
78315;SHT31;68596;52.080;4.662;2023-07-09T06:16:11;25.87;66.98
78315;SHT31;68596;52.080;4.662;2023-07-09T06:18:55;25.91;66.94
78315;SHT31;68596;52.080;4.662;2023-07-09T06:21:40;25.98;66.39
78315;SHT31;68596;52.080;4.662;2023-07-09T06:24:24;26.00;66.99
78315;SHT31;68596;52.080;4.662;2023-07-09T06:27:09;26.07;66.76
78315;SHT31;68596;52.080;4.662;2023-07-09T06:29:53;26.11;66.27
78315;SHT31;68596;52.080;4.662;2023-07-09T06:32:37;26.13;66.23
78315;SHT31;68596;52.080;4.662;2023-07-09T06:35:21;26.14;65.82
78315;SHT31;68596;52.080;4.662;2023-07-09T06:38:06;26.18;65.61
78315;SHT31;68596;52.080;4.662;2023-07-09T06:40:51;26.20;66.00
78315;SHT31;68596;52.080;4.662;2023-07-09T06:43:36;26.24;65.77
78315;SHT31;68596;52.080;4.662;2023-07-09T06:46:23;26.25;64.51
78315;SHT31;68596;52.080;4.662;2023-07-09T06:49:08;26.24;64.33
78315;SHT31;68596;52.080;4.662;2023-07-09T06:51:52;26.22;64.02
78315;SHT31;68596;52.080;4.662;2023-07-09T06:54:36;26.22;63.62
78315;SHT31;68596;52.080;4.662;2023-07-09T06:57:20;26.21;63.81
78315;SHT31;68596;52.080;4.662;2023-07-09T07:00:05;26.21;61.78
78315;SHT31;68596;52.080;4.662;2023-07-09T07:02:50;26.24;61.31
78315;SHT31;68596;52.080;4.662;2023-07-09T07:05:35;26.24;62.07
78315;SHT31;68596;52.080;4.662;2023-07-09T07:08:21;26.24;61.83
78315;SHT31;68596;52.080;4.662;2023-07-09T07:11:06;26.21;61.92
78315;SHT31;68596;52.080;4.662;2023-07-09T07:13:51;26.21;61.58
78315;SHT31;68596;52.080;4.662;2023-07-09T07:16:35;26.20;60.86
78315;SHT31;68596;52.080;4.662;2023-07-09T07:19:19;26.17;61.65
78315;SHT31;68596;52.080;4.662;2023-07-09T07:22:03;26.14;60.99
78315;SHT31;68596;52.080;4.662;2023-07-09T07:24:47;26.16;61.20
78315;SHT31;68596;52.080;4.662;2023-07-09T07:27:32;26.11;61.27
78315;SHT31;68596;52.080;4.662;2023-07-09T07:30:17;26.11;61.25
78315;SHT31;68596;52.080;4.662;2023-07-09T07:33:01;26.13;61.97
78315;SHT31;68596;52.080;4.662;2023-07-09T07:35:45;26.13;61.79
78315;SHT31;68596;52.080;4.662;2023-07-09T07:38:29;26.17;61.63
78315;SHT31;68596;52.080;4.662;2023-07-09T07:41:13;26.18;62.33
78315;SHT31;68596;52.080;4.662;2023-07-09T07:43:57;26.18;61.06
78315;SHT31;68596;52.080;4.662;2023-07-09T07:46:41;26.21;60.67
78315;SHT31;68596;52.080;4.662;2023-07-09T07:49:25;26.22;60.42
78315;SHT31;68596;52.080;4.662;2023-07-09T07:52:10;26.22;60.90
78315;SHT31;68596;52.080;4.662;2023-07-09T07:54:54;26.24;60.92
78315;SHT31;68596;52.080;4.662;2023-07-09T07:57:38;26.27;61.00
78315;SHT31;68596;52.080;4.662;2023-07-09T08:00:22;26.28;60.69
78315;SHT31;68596;52.080;4.662;2023-07-09T08:03:07;26.30;60.60
78315;SHT31;68596;52.080;4.662;2023-07-09T08:05:52;26.31;60.58
78315;SHT31;68596;52.080;4.662;2023-07-09T08:08:37;26.32;60.64
78315;SHT31;68596;52.080;4.662;2023-07-09T08:11:21;26.34;60.97
78315;SHT31;68596;52.080;4.662;2023-07-09T08:14:06;26.37;61.20
78315;SHT31;68596;52.080;4.662;2023-07-09T08:16:50;26.40;61.18
78315;SHT31;68596;52.080;4.662;2023-07-09T08:19:49;26.45;60.97
78315;SHT31;68596;52.080;4.662;2023-07-09T08:22:33;26.49;61.17
78315;SHT31;68596;52.080;4.662;2023-07-09T08:25:17;26.52;60.96
78315;SHT31;68596;52.080;4.662;2023-07-09T08:28:01;26.56;60.92
78315;SHT31;68596;52.080;4.662;2023-07-09T08:30:45;26.59;61.04
78315;SHT31;68596;52.080;4.662;2023-07-09T08:33:30;26.62;61.17
78315;SHT31;68596;52.080;4.662;2023-07-09T08:36:14;26.63;60.98
78315;SHT31;68596;52.080;4.662;2023-07-09T08:39:01;26.68;60.82
78315;SHT31;68596;52.080;4.662;2023-07-09T08:41:52;26.71;60.78
78315;SHT31;68596;52.080;4.662;2023-07-09T08:45:23;26.73;60.74
78315;SHT31;68596;52.080;4.662;2023-07-09T08:54:28;26.82;60.72
78315;SHT31;68596;52.080;4.662;2023-07-09T08:57:20;26.88;60.59
78315;SHT31;68596;52.080;4.662;2023-07-09T09:05:54;27.00;60.19
78315;SHT31;68596;52.080;4.662;2023-07-09T09:11:45;27.07;60.09
78315;SHT31;68596;52.080;4.662;2023-07-09T09:14:37;27.16;59.35
78315;SHT31;68596;52.080;4.662;2023-07-09T09:17:23;27.17;59.69
78315;SHT31;68596;52.080;4.662;2023-07-09T09:20:17;27.23;59.73
78315;SHT31;68596;52.080;4.662;2023-07-09T09:25:55;27.36;59.56
78315;SHT31;68596;52.080;4.662;2023-07-09T09:28:40;27.40;59.20
78315;SHT31;68596;52.080;4.662;2023-07-09T09:31:27;27.47;59.80
78315;SHT31;68596;52.080;4.662;2023-07-09T09:34:26;27.51;60.01
78315;SHT31;68596;52.080;4.662;2023-07-09T09:37:11;27.54;59.85
78315;SHT31;68596;52.080;4.662;2023-07-09T09:39:58;27.64;59.67
78315;SHT31;68596;52.080;4.662;2023-07-09T09:42:43;27.70;59.03
78315;SHT31;68596;52.080;4.662;2023-07-09T09:45:39;27.76;59.17
78315;SHT31;68596;52.080;4.662;2023-07-09T09:48:30;27.77;59.08
78315;SHT31;68596;52.080;4.662;2023-07-09T09:51:16;27.83;58.23
78315;SHT31;68596;52.080;4.662;2023-07-09T09:54:01;27.87;58.09
78315;SHT31;68596;52.080;4.662;2023-07-09T09:56:48;27.91;58.53
78315;SHT31;68596;52.080;4.662;2023-07-09T09:59:36;27.91;58.61
78315;SHT31;68596;52.080;4.662;2023-07-09T10:02:25;27.97;58.68
78315;SHT31;68596;52.080;4.662;2023-07-09T10:05:14;28.00;58.88
78315;SHT31;68596;52.080;4.662;2023-07-09T10:08:31;28.02;59.07
78315;SHT31;68596;52.080;4.662;2023-07-09T10:20:21;28.24;58.70
78315;SHT31;68596;52.080;4.662;2023-07-09T10:26:56;28.35;58.60
78315;SHT31;68596;52.080;4.662;2023-07-09T10:33:08;28.49;58.09
78315;SHT31;68596;52.080;4.662;2023-07-09T10:36:00;28.58;58.40
78315;SHT31;68596;52.080;4.662;2023-07-09T10:41:38;28.68;58.43
78315;SHT31;68596;52.080;4.662;2023-07-09T10:44:38;28.76;58.12
78315;SHT31;68596;52.080;4.662;2023-07-09T10:47:31;28.82;58.76
78315;SHT31;68596;52.080;4.662;2023-07-09T10:50:52;28.92;58.27
78315;SHT31;68596;52.080;4.662;2023-07-09T10:53:45;29.00;58.56
78315;SHT31;68596;52.080;4.662;2023-07-09T10:56:34;29.07;57.91
78315;SHT31;68596;52.080;4.662;2023-07-09T10:59:32;29.13;57.97
78315;SHT31;68596;52.080;4.662;2023-07-09T11:05:09;29.26;57.96
78315;SHT31;68596;52.080;4.662;2023-07-09T11:08:02;29.35;57.77
78315;SHT31;68596;52.080;4.662;2023-07-09T11:11:09;29.40;57.74
78315;SHT31;68596;52.080;4.662;2023-07-09T11:14:02;29.47;57.20
78315;SHT31;68596;52.080;4.662;2023-07-09T11:16:49;29.58;56.26
78315;SHT31;68596;52.080;4.662;2023-07-09T11:19:45;29.61;56.83
78315;SHT31;68596;52.080;4.662;2023-07-09T11:22:40;29.57;56.07
78315;SHT31;68596;52.080;4.662;2023-07-09T11:26:21;29.54;56.02
78315;SHT31;68596;52.080;4.662;2023-07-09T11:28:35;29.54;55.47
78315;SHT31;68596;52.080;4.662;2023-07-09T11:31:31;29.47;55.65
78315;SHT31;68596;52.080;4.662;2023-07-09T11:34:19;29.40;56.44
78315;SHT31;68596;52.080;4.662;2023-07-09T11:37:12;29.35;56.18
78315;SHT31;68596;52.080;4.662;2023-07-09T11:40:11;29.34;56.68
78315;SHT31;68596;52.080;4.662;2023-07-09T11:42:58;29.35;56.70
78315;SHT31;68596;52.080;4.662;2023-07-09T11:45:42;29.33;56.96
78315;SHT31;68596;52.080;4.662;2023-07-09T11:48:32;29.35;56.89
78315;SHT31;68596;52.080;4.662;2023-07-09T11:51:37;29.37;56.55
78315;SHT31;68596;52.080;4.662;2023-07-09T11:54:22;29.40;56.99
78315;SHT31;68596;52.080;4.662;2023-07-09T11:57:12;29.41;56.71
78315;SHT31;68596;52.080;4.662;2023-07-09T11:59:59;29.43;56.69
78315;SHT31;68596;52.080;4.662;2023-07-09T12:02:45;29.41;55.88
78315;SHT31;68596;52.080;4.662;2023-07-09T12:05:29;29.35;55.94
78315;SHT31;68596;52.080;4.662;2023-07-09T12:08:15;29.34;55.50
78315;SHT31;68596;52.080;4.662;2023-07-09T12:11:00;29.26;55.88
78315;SHT31;68596;52.080;4.662;2023-07-09T12:13:44;29.20;54.73
78315;SHT31;68596;52.080;4.662;2023-07-09T12:16:34;29.13;55.40
78315;SHT31;68596;52.080;4.662;2023-07-09T12:19:21;29.09;55.03
78315;SHT31;68596;52.080;4.662;2023-07-09T12:22:18;29.02;54.81
78315;SHT31;68596;52.080;4.662;2023-07-09T12:25:19;28.95;55.40
78315;SHT31;68596;52.080;4.662;2023-07-09T12:28:04;28.90;55.18
78315;SHT31;68596;52.080;4.662;2023-07-09T12:30:51;28.83;55.34
78315;SHT31;68596;52.080;4.662;2023-07-09T12:33:35;28.75;55.51
78315;SHT31;68596;52.080;4.662;2023-07-09T12:36:20;28.68;55.80
78315;SHT31;68596;52.080;4.662;2023-07-09T12:39:04;28.56;56.66
78315;SHT31;68596;52.080;4.662;2023-07-09T12:41:48;28.41;56.92
78315;SHT31;68596;52.080;4.662;2023-07-09T12:44:36;28.24;56.96
78315;SHT31;68596;52.080;4.662;2023-07-09T12:47:24;28.08;57.63
78315;SHT31;68596;52.080;4.662;2023-07-09T12:53:17;27.68;58.00
78315;SHT31;68596;52.080;4.662;2023-07-09T12:56:02;27.55;58.79
78315;SHT31;68596;52.080;4.662;2023-07-09T12:58:46;27.49;59.06
78315;SHT31;68596;52.080;4.662;2023-07-09T13:01:34;27.36;58.77
78315;SHT31;68596;52.080;4.662;2023-07-09T13:04:18;27.22;59.46
78315;SHT31;68596;52.080;4.662;2023-07-09T13:07:03;27.09;59.94
78315;SHT31;68596;52.080;4.662;2023-07-09T13:09:49;27.06;59.97
78315;SHT31;68596;52.080;4.662;2023-07-09T13:12:34;27.00;59.88
78315;SHT31;68596;52.080;4.662;2023-07-09T13:15:27;26.95;60.15
78315;SHT31;68596;52.080;4.662;2023-07-09T13:18:13;26.91;60.17
78315;SHT31;68596;52.080;4.662;2023-07-09T13:20:59;26.81;60.29
78315;SHT31;68596;52.080;4.662;2023-07-09T13:23:44;26.72;60.60
78315;SHT31;68596;52.080;4.662;2023-07-09T13:26:28;26.71;60.92
78315;SHT31;68596;52.080;4.662;2023-07-09T13:29:14;26.69;60.65
78315;SHT31;68596;52.080;4.662;2023-07-09T13:31:59;26.62;60.21
78315;SHT31;68596;52.080;4.662;2023-07-09T13:34:44;26.52;60.95
78315;SHT31;68596;52.080;4.662;2023-07-09T13:37:28;26.52;60.51
78315;SHT31;68596;52.080;4.662;2023-07-09T13:40:15;26.45;61.19
78315;SHT31;68596;52.080;4.662;2023-07-09T13:42:59;26.41;61.35
78315;SHT31;68596;52.080;4.662;2023-07-09T13:45:43;26.37;61.10
78315;SHT31;68596;52.080;4.662;2023-07-09T13:48:27;26.28;60.92
78315;SHT31;68596;52.080;4.662;2023-07-09T13:51:23;26.24;61.60
78315;SHT31;68596;52.080;4.662;2023-07-09T13:54:22;26.20;61.84
78315;SHT31;68596;52.080;4.662;2023-07-09T13:57:14;26.14;60.98
78315;SHT31;68596;52.080;4.662;2023-07-09T13:59:59;25.97;61.09
78315;SHT31;68596;52.080;4.662;2023-07-09T14:02:44;25.91;61.52
78315;SHT31;68596;52.080;4.662;2023-07-09T14:05:28;25.84;61.65
78315;SHT31;68596;52.080;4.662;2023-07-09T14:08:12;25.83;61.36
78315;SHT31;68596;52.080;4.662;2023-07-09T14:10:56;25.80;61.47
78315;SHT31;68596;52.080;4.662;2023-07-09T14:13:42;25.80;61.47
78315;SHT31;68596;52.080;4.662;2023-07-09T14:16:26;25.74;61.79
78315;SHT31;68596;52.080;4.662;2023-07-09T14:19:15;25.76;61.05
78315;SHT31;68596;52.080;4.662;2023-07-09T14:22:00;25.71;60.60
78315;SHT31;68596;52.080;4.662;2023-07-09T14:24:44;25.65;60.83
78315;SHT31;68596;52.080;4.662;2023-07-09T14:27:28;25.54;61.43
78315;SHT31;68596;52.080;4.662;2023-07-09T14:30:17;25.35;62.69
78315;SHT31;68596;52.080;4.662;2023-07-09T14:33:02;25.23;64.82
78315;SHT31;68596;52.080;4.662;2023-07-09T14:35:48;25.15;67.38
78315;SHT31;68596;52.080;4.662;2023-07-09T14:38:32;24.75;67.78
78315;SHT31;68596;52.080;4.662;2023-07-09T14:41:26;24.30;68.79
78315;SHT31;68596;52.080;4.662;2023-07-09T14:44:24;24.10;68.83
78315;SHT31;68596;52.080;4.662;2023-07-09T14:47:18;24.11;68.60
78315;SHT31;68596;52.080;4.662;2023-07-09T14:50:03;24.23;69.76
78315;SHT31;68596;52.080;4.662;2023-07-09T14:52:48;24.23;70.09
78315;SHT31;68596;52.080;4.662;2023-07-09T14:55:33;24.21;70.10
78315;SHT31;68596;52.080;4.662;2023-07-09T14:58:19;24.24;69.69
78315;SHT31;68596;52.080;4.662;2023-07-09T15:01:04;24.25;69.43
78315;SHT31;68596;52.080;4.662;2023-07-09T15:03:48;24.30;69.82
78315;SHT31;68596;52.080;4.662;2023-07-09T15:06:33;24.33;69.54
78315;SHT31;68596;52.080;4.662;2023-07-09T15:09:20;24.33;69.93
78315;SHT31;68596;52.080;4.662;2023-07-09T15:12:16;24.31;70.19
78315;SHT31;68596;52.080;4.662;2023-07-09T15:15:25;24.37;70.75
78315;SHT31;68596;52.080;4.662;2023-07-09T15:18:12;24.40;70.05
78315;SHT31;68596;52.080;4.662;2023-07-09T15:21:00;24.41;70.59
78315;SHT31;68596;52.080;4.662;2023-07-09T15:23:44;24.44;70.54
78315;SHT31;68596;52.080;4.662;2023-07-09T15:26:28;24.45;70.23
78315;SHT31;68596;52.080;4.662;2023-07-09T15:29:14;24.45;69.78
78315;SHT31;68596;52.080;4.662;2023-07-09T15:31:59;24.45;69.68
78315;SHT31;68596;52.080;4.662;2023-07-09T15:34:44;24.40;70.08
78315;SHT31;68596;52.080;4.662;2023-07-09T15:37:28;24.38;70.17
78315;SHT31;68596;52.080;4.662;2023-07-09T15:40:18;24.37;70.05
78315;SHT31;68596;52.080;4.662;2023-07-09T15:43:06;24.28;70.27
78315;SHT31;68596;52.080;4.662;2023-07-09T15:45:55;24.25;71.37
78315;SHT31;68596;52.080;4.662;2023-07-09T15:48:40;24.20;71.16
78315;SHT31;68596;52.080;4.662;2023-07-09T15:51:25;24.14;71.38
78315;SHT31;68596;52.080;4.662;2023-07-09T15:54:20;24.10;71.65
78315;SHT31;68596;52.080;4.662;2023-07-09T15:57:05;24.07;71.66
78315;SHT31;68596;52.080;4.662;2023-07-09T15:59:50;24.07;72.27
78315;SHT31;68596;52.080;4.662;2023-07-09T16:02:34;24.03;72.05
78315;SHT31;68596;52.080;4.662;2023-07-09T16:05:29;23.99;72.28
78315;SHT31;68596;52.080;4.662;2023-07-09T16:08:13;24.00;72.41
78315;SHT31;68596;52.080;4.662;2023-07-09T16:10:58;24.03;71.41
78315;SHT31;68596;52.080;4.662;2023-07-09T16:13:43;24.06;71.28
78315;SHT31;68596;52.080;4.662;2023-07-09T16:16:27;24.00;70.89
78315;SHT31;68596;52.080;4.662;2023-07-09T16:19:11;23.93;70.87
78315;SHT31;68596;52.080;4.662;2023-07-09T16:21:59;23.90;71.24
78315;SHT31;68596;52.080;4.662;2023-07-09T16:24:44;23.93;71.09
78315;SHT31;68596;52.080;4.662;2023-07-09T16:27:28;23.94;71.34
78315;SHT31;68596;52.080;4.662;2023-07-09T16:30:19;23.93;70.35
78315;SHT31;68596;52.080;4.662;2023-07-09T16:33:03;23.89;70.22
78315;SHT31;68596;52.080;4.662;2023-07-09T16:35:50;23.84;69.18
78315;SHT31;68596;52.080;4.662;2023-07-09T16:38:35;23.80;70.00
78315;SHT31;68596;52.080;4.662;2023-07-09T16:41:19;23.79;70.07
78315;SHT31;68596;52.080;4.662;2023-07-09T16:44:11;23.82;69.12
78315;SHT31;68596;52.080;4.662;2023-07-09T16:46:55;23.79;69.47
78315;SHT31;68596;52.080;4.662;2023-07-09T16:49:41;23.73;68.79
78315;SHT31;68596;52.080;4.662;2023-07-09T16:52:27;23.72;68.66
78315;SHT31;68596;52.080;4.662;2023-07-09T16:55:18;23.69;68.56
78315;SHT31;68596;52.080;4.662;2023-07-09T16:58:04;23.66;68.71
78315;SHT31;68596;52.080;4.662;2023-07-09T17:00:48;23.62;68.98
78315;SHT31;68596;52.080;4.662;2023-07-09T17:03:32;23.63;69.27
78315;SHT31;68596;52.080;4.662;2023-07-09T17:06:16;23.62;68.88
78315;SHT31;68596;52.080;4.662;2023-07-09T17:09:00;23.65;68.67
78315;SHT31;68596;52.080;4.662;2023-07-09T17:11:46;23.63;68.46
78315;SHT31;68596;52.080;4.662;2023-07-09T17:14:30;23.63;68.75
78315;SHT31;68596;52.080;4.662;2023-07-09T17:17:19;23.62;68.66
78315;SHT31;68596;52.080;4.662;2023-07-09T17:20:04;23.63;67.75
78315;SHT31;68596;52.080;4.662;2023-07-09T17:22:50;23.62;68.14
78315;SHT31;68596;52.080;4.662;2023-07-09T17:25:37;23.60;68.09
78315;SHT31;68596;52.080;4.662;2023-07-09T17:28:27;23.59;67.93
78315;SHT31;68596;52.080;4.662;2023-07-09T17:31:12;23.59;68.20
78315;SHT31;68596;52.080;4.662;2023-07-09T17:33:56;23.58;68.19
78315;SHT31;68596;52.080;4.662;2023-07-09T17:36:45;23.58;68.27
78315;SHT31;68596;52.080;4.662;2023-07-09T17:39:30;23.58;68.21
78315;SHT31;68596;52.080;4.662;2023-07-09T17:42:15;23.58;68.10
78315;SHT31;68596;52.080;4.662;2023-07-09T17:44:59;23.55;67.71
78315;SHT31;68596;52.080;4.662;2023-07-09T17:47:43;23.48;67.95
78315;SHT31;68596;52.080;4.662;2023-07-09T17:50:30;23.42;67.94
78315;SHT31;68596;52.080;4.662;2023-07-09T17:53:18;23.39;68.04
78315;SHT31;68596;52.080;4.662;2023-07-09T17:56:20;23.35;68.37
78315;SHT31;68596;52.080;4.662;2023-07-09T17:59:21;23.33;69.06
78315;SHT31;68596;52.080;4.662;2023-07-09T18:02:20;23.26;67.89
78315;SHT31;68596;52.080;4.662;2023-07-09T18:05:24;23.25;68.18
78315;SHT31;68596;52.080;4.662;2023-07-09T18:08:11;23.19;67.57
78315;SHT31;68596;52.080;4.662;2023-07-09T18:10:57;23.15;67.49
78315;SHT31;68596;52.080;4.662;2023-07-09T18:13:41;23.11;67.65
78315;SHT31;68596;52.080;4.662;2023-07-09T18:16:25;23.09;67.97
78315;SHT31;68596;52.080;4.662;2023-07-09T18:19:20;23.08;67.78
78315;SHT31;68596;52.080;4.662;2023-07-09T18:22:14;23.04;67.27
78315;SHT31;68596;52.080;4.662;2023-07-09T18:24:59;23.01;67.75
78315;SHT31;68596;52.080;4.662;2023-07-09T18:27:46;22.97;67.94
78315;SHT31;68596;52.080;4.662;2023-07-09T18:30:35;22.98;67.75
78315;SHT31;68596;52.080;4.662;2023-07-09T18:33:20;22.98;68.52
78315;SHT31;68596;52.080;4.662;2023-07-09T18:36:04;22.97;67.89
78315;SHT31;68596;52.080;4.662;2023-07-09T18:38:48;22.95;68.12
78315;SHT31;68596;52.080;4.662;2023-07-09T18:41:33;22.92;68.00
78315;SHT31;68596;52.080;4.662;2023-07-09T18:44:19;22.90;67.94
78315;SHT31;68596;52.080;4.662;2023-07-09T18:47:11;22.86;67.66
78315;SHT31;68596;52.080;4.662;2023-07-09T18:49:56;22.84;68.02
78315;SHT31;68596;52.080;4.662;2023-07-09T18:52:41;22.81;67.95
78315;SHT31;68596;52.080;4.662;2023-07-09T18:55:28;22.83;68.10
78315;SHT31;68596;52.080;4.662;2023-07-09T18:58:26;22.79;68.54